Impacts TAF Board
For situational awareness. Not to be used for flight planning purposes.
IDs:

KMTN - Baltimore/Martin Sta, MD, US

Issued at 1141 UTC 17 Sep 2019
Updated at 1319 UTC 17 Sep 2019
Potential Impact None Slight Moderate High
Time1245Z 17/14Z 17/15Z 17/16Z 17/17Z 17/18Z 17/19Z 17/20Z 17/21Z 17/22Z 17/23Z 18/00Z 18/01Z 18/02Z>>
Type OBS PRVL PRVL PRVL PRVL PRVL PRVL PRVL PRVL PRVL PRVL PRVL PRVL PRVL
VIS 10 >6 >6 >6 >6 >6 >6 >6 >6 >6 >6 >6 >6 >6
CIG 34 80 80 80 80 80 80 80 -- -- -- -- -- --
Cover BKN BKN BKN BKN BKN BKN BKN BKN SCT SCT SCT SCT SKC SKC
FltCat VFR VFR VFR VFR VFR VFR VFR VFR VFR VFR VFR VFR VFR VFR
WX -- -- -- -- -- -- -- -- -- -- -- -- -- --
WDir 50 50 50 50 50 50 50 50 70 70 70 70 VRB VRB
WSpd 4 7 7 7 7 7 7 7 7 7 7 7 3 3
WGst -- -- -- -- -- -- -- -- -- -- -- -- -- --
Raw TAF
KMTN 171141Z 1712/1812 VRB03KT P6SM BKN070
  FM171400 05007KT P6SM BKN080
  FM172100 07007KT P6SM SCT100
  FM180100 VRB03KT P6SM SKC


Raw METAR
KMTN 171245Z 05004KT 10SM FEW017 BKN034 22/18 A3012
KMTN 171145Z 03003KT 10SM FEW017 BKN100 21/19 A3010
KMTN 171055Z 00000KT 10SM SCT075 BKN085 BKN100 20/19 A3008

METAR Board
Radar Display
Forecast Discussion
For situational awareness. Not to be used for flight planning purposes.